Time;durP1;ratioP1;P1;durP2;ratioP2;P2;SDS_P1;SDS_P2;PMS_P1;PMS_P2;Temp;Humidity;BMP_temperature;BMP_pressure;BME280_temperature;BME280_humidity;BME280_pressure;Samples;Min_cycle;Max_cycle;Signal;HPM_P1;HPM_P2
2023/11/22 00:01:49;;;;;;;13.57;2.47;;;8.60;99.90;;;;;;5031155;28;20042;-74
2023/11/22 00:04:17;;;;;;;9.90;2.30;;;8.60;99.90;;;;;;5031309;28;20045;-73
2023/11/22 00:06:44;;;;;;;8.77;2.20;;;8.60;99.90;;;;;;5032468;28;20046;-73
2023/11/22 00:09:11;;;;;;;4.97;1.77;;;8.60;99.90;;;;;;5015633;28;20033;-73
2023/11/22 00:11:38;;;;;;;8.80;2.10;;;8.50;99.90;;;;;;5030768;28;20052;-74
2023/11/22 00:14:06;;;;;;;9.13;2.10;;;8.50;99.90;;;;;;5010842;28;20041;-74
2023/11/22 00:16:34;;;;;;;7.68;2.13;;;8.40;99.90;;;;;;5031056;28;20064;-74
2023/11/22 00:19:01;;;;;;;8.60;2.95;;;8.30;99.90;;;;;;5030433;28;20068;-74
2023/11/22 00:21:27;;;;;;;15.20;3.75;;;8.30;99.90;;;;;;5013013;28;20053;-73
2023/11/22 00:23:54;;;;;;;9.70;3.42;;;8.20;99.90;;;;;;5032613;28;20072;-73
2023/11/22 00:26:21;;;;;;;9.95;3.38;;;8.20;99.90;;;;;;5032610;28;20053;-73
2023/11/22 00:28:49;;;;;;;11.10;2.28;;;8.20;99.90;;;;;;5014917;28;20073;-73
2023/11/22 00:31:16;;;;;;;8.57;2.22;;;8.10;99.90;;;;;;5031808;28;20045;-73
2023/11/22 00:33:42;;;;;;;9.55;1.90;;;8.10;99.90;;;;;;5023733;28;20305;-75
2023/11/22 00:36:09;;;;;;;8.45;2.03;;;8.00;99.90;;;;;;5033313;28;20074;-73
2023/11/22 00:38:37;;;;;;;7.28;1.70;;;8.00;99.90;;;;;;5011578;28;20042;-74
2023/11/22 00:41:04;;;;;;;5.40;1.98;;;7.90;99.90;;;;;;5031824;28;20049;-73
2023/11/22 00:43:31;;;;;;;9.10;2.17;;;7.90;99.90;;;;;;5029942;28;20042;-73
2023/11/22 00:45:57;;;;;;;12.65;2.35;;;7.90;99.90;;;;;;5032456;28;20494;-74
2023/11/22 00:48:24;;;;;;;7.95;2.08;;;7.90;99.90;;;;;;5028036;28;20049;-74
2023/11/22 00:50:51;;;;;;;8.75;2.05;;;7.80;99.90;;;;;;5027756;28;20099;-74
2023/11/22 00:53:18;;;;;;;16.73;1.77;;;7.80;99.90;;;;;;5026013;28;20042;-73
2023/11/22 00:55:45;;;;;;;9.18;2.20;;;7.80;99.90;;;;;;5035813;28;20045;-73
2023/11/22 00:58:12;;;;;;;7.32;2.15;;;7.80;99.90;;;;;;5036615;28;20045;-74
2023/11/22 01:00:39;;;;;;;10.27;3.10;;;7.80;99.90;;;;;;5018758;28;20412;-75
2023/11/22 01:03:06;;;;;;;12.15;2.95;;;7.70;99.90;;;;;;5032976;28;20049;-73
2023/11/22 01:05:33;;;;;;;8.85;2.28;;;7.70;99.90;;;;;;5034494;28;20048;-72
2023/11/22 01:07:59;;;;;;;8.95;2.42;;;7.70;99.90;;;;;;5016796;28;20373;-73
2023/11/22 01:10:27;;;;;;;10.38;2.30;;;7.70;99.90;;;;;;5031813;28;20412;-73
2023/11/22 01:12:53;;;;;;;12.45;2.10;;;7.70;99.90;;;;;;5035100;28;20037;-72
2023/11/22 01:15:21;;;;;;;11.63;2.20;;;7.70;99.90;;;;;;5037087;28;20045;-72
2023/11/22 01:17:48;;;;;;;20.17;4.28;;;7.70;99.90;;;;;;5039103;28;20045;-72
2023/11/22 01:20:15;;;;;;;11.27;2.67;;;7.70;99.90;;;;;;5022046;28;20048;-74
2023/11/22 01:22:42;;;;;;;15.55;2.22;;;7.70;99.90;;;;;;5020349;28;20403;-72
2023/11/22 01:25:09;;;;;;;6.93;1.55;;;7.70;99.90;;;;;;5039166;28;20046;-73
2023/11/22 01:27:36;;;;;;;10.18;2.20;;;7.70;99.90;;;;;;5036337;28;20431;-73
2023/11/22 01:30:03;;;;;;;12.50;2.13;;;7.70;99.90;;;;;;5032491;28;20046;-73
2023/11/22 01:32:30;;;;;;;10.48;2.72;;;7.70;99.90;;;;;;5032717;28;20115;-74
2023/11/22 01:34:57;;;;;;;8.10;2.88;;;7.70;99.90;;;;;;5037665;28;20047;-75
2023/11/22 01:37:24;;;;;;;9.43;2.22;;;7.70;99.90;;;;;;5035352;28;20050;-72
2023/11/22 01:39:52;;;;;;;8.77;2.42;;;7.60;99.90;;;;;;5033530;28;20261;-73
2023/11/22 01:42:20;;;;;;;7.25;2.10;;;7.70;99.90;;;;;;5039698;28;20048;-73
2023/11/22 01:44:47;;;;;;;16.20;4.25;;;7.70;99.90;;;;;;5030826;28;20069;-72
2023/11/22 01:47:14;;;;;;;7.03;2.53;;;7.70;99.90;;;;;;4681701;28;10000535;-73
2023/11/22 01:49:41;;;;;;;5.72;2.20;;;7.70;99.90;;;;;;5032892;28;20057;-72
2023/11/22 01:52:08;;;;;;;11.45;2.53;;;7.70;99.90;;;;;;5017093;28;20941;-73
2023/11/22 01:54:34;;;;;;;13.30;2.20;;;7.70;99.90;;;;;;5035556;28;20294;-73
2023/11/22 01:57:02;;;;;;;6.93;2.33;;;7.80;99.90;;;;;;5017050;28;20574;-73
2023/11/22 01:59:29;;;;;;;8.65;3.05;;;7.70;99.90;;;;;;5019524;28;20053;-74
2023/11/22 02:01:56;;;;;;;9.68;2.63;;;7.70;99.90;;;;;;5020168;28;20432;-74
2023/11/22 02:04:24;;;;;;;5.97;2.08;;;7.70;99.90;;;;;;5033324;28;20360;-74
2023/11/22 02:06:51;;;;;;;10.13;2.40;;;7.80;99.90;;;;;;5034873;28;20423;-73
2023/11/22 02:09:18;;;;;;;11.82;3.53;;;7.70;99.90;;;;;;5033212;28;20042;-73
2023/11/22 02:11:47;;;;;;;12.90;3.03;;;7.70;99.90;;;;;;5034964;28;20057;-73
2023/11/22 02:14:14;;;;;;;12.23;2.45;;;7.70;99.90;;;;;;5016505;28;20049;-73
2023/11/22 02:16:41;;;;;;;11.88;2.65;;;7.70;99.90;;;;;;5033201;28;20148;-73
2023/11/22 02:19:13;;;;;;;10.85;3.47;;;7.70;99.90;;;;;;5033119;28;20524;-72
2023/11/22 02:21:40;;;;;;;14.50;2.75;;;7.70;99.90;;;;;;5017260;28;20041;-73
2023/11/22 02:24:07;;;;;;;10.63;3.17;;;7.70;99.90;;;;;;5036746;28;20060;-73
2023/11/22 02:26:34;;;;;;;6.20;2.67;;;7.70;99.90;;;;;;5035230;28;20049;-72
2023/11/22 02:29:01;;;;;;;12.68;2.50;;;7.60;99.90;;;;;;5034876;28;20107;-73
2023/11/22 02:31:28;;;;;;;13.55;4.00;;;7.70;99.90;;;;;;5031805;28;20137;-72
2023/11/22 02:33:55;;;;;;;8.05;2.65;;;7.60;99.90;;;;;;5033489;28;20045;-74
2023/11/22 02:36:22;;;;;;;13.55;4.07;;;7.60;99.90;;;;;;5036882;28;20512;-73
2023/11/22 02:38:50;;;;;;;10.05;2.83;;;7.70;99.90;;;;;;5038016;28;20042;-72
2023/11/22 02:41:17;;;;;;;8.43;2.65;;;7.60;99.90;;;;;;5026098;28;20072;-73
2023/11/22 02:43:45;;;;;;;11.70;2.53;;;7.50;99.90;;;;;;5021980;28;20044;-73
2023/11/22 02:46:12;;;;;;;9.80;2.80;;;7.60;99.90;;;;;;5017580;28;20042;-73
2023/11/22 02:48:39;;;;;;;5.63;2.55;;;7.50;99.90;;;;;;5014531;28;20050;-73
2023/11/22 02:51:06;;;;;;;11.40;3.03;;;7.50;99.90;;;;;;5034485;28;20046;-73
2023/11/22 02:53:33;;;;;;;8.18;1.95;;;7.50;99.90;;;;;;5033356;28;20113;-73
2023/11/22 02:56:00;;;;;;;7.07;2.22;;;7.40;99.90;;;;;;5016645;28;20508;-72
2023/11/22 02:58:29;;;;;;;16.00;3.13;;;7.30;99.90;;;;;;5033880;28;20046;-74
2023/11/22 03:00:57;;;;;;;5.70;2.03;;;7.30;99.90;;;;;;5032425;28;20532;-73
2023/11/22 03:03:24;;;;;;;9.48;2.45;;;7.30;99.90;;;;;;5015303;28;20050;-72
2023/11/22 03:05:51;;;;;;;7.30;2.60;;;7.30;99.90;;;;;;5029085;28;20068;-72
2023/11/22 03:08:17;;;;;;;8.85;2.53;;;7.30;99.90;;;;;;5024975;28;20114;-73
2023/11/22 03:10:44;;;;;;;12.02;2.75;;;7.30;99.90;;;;;;4999597;28;20064;-73
2023/11/22 03:13:11;;;;;;;9.73;2.30;;;7.40;99.90;;;;;;5032402;28;20217;-72
2023/11/22 03:15:38;;;;;;;11.02;2.85;;;7.50;99.90;;;;;;5031662;28;20131;-72
2023/11/22 03:18:06;;;;;;;10.63;2.50;;;7.40;99.90;;;;;;5016229;28;20046;-73
2023/11/22 03:20:33;;;;;;;11.80;2.83;;;7.40;99.90;;;;;;5032891;28;20045;-73
2023/11/22 03:23:00;;;;;;;7.22;2.33;;;7.40;99.90;;;;;;5032732;28;20038;-72
2023/11/22 03:25:28;;;;;;;12.05;2.95;;;7.40;99.90;;;;;;5032386;28;20050;-73
2023/11/22 03:27:55;;;;;;;8.55;3.00;;;7.40;99.90;;;;;;5033240;28;20573;-73
2023/11/22 03:30:22;;;;;;;9.43;2.53;;;7.40;99.90;;;;;;5015297;28;20053;-73
2023/11/22 03:32:49;;;;;;;8.23;2.17;;;7.40;99.90;;;;;;5032633;28;20068;-74
2023/11/22 03:35:16;;;;;;;21.90;4.70;;;7.40;99.90;;;;;;5031677;28;20076;-73
2023/11/22 03:37:43;;;;;;;9.05;3.65;;;7.50;99.90;;;;;;5033255;28;20045;-73
2023/11/22 03:40:10;;;;;;;8.25;2.63;;;7.40;99.90;;;;;;5028906;28;20103;-73
2023/11/22 03:42:38;;;;;;;7.40;2.63;;;7.40;99.90;;;;;;5036518;28;20102;-73
2023/11/22 03:45:06;;;;;;;11.93;2.88;;;7.40;99.90;;;;;;5032447;28;20124;-73
2023/11/22 03:47:33;;;;;;;6.07;2.50;;;7.40;99.90;;;;;;5031918;28;20296;-72
2023/11/22 03:50:00;;;;;;;9.13;2.97;;;7.30;99.90;;;;;;5011202;28;20041;-73
2023/11/22 03:52:27;;;;;;;8.55;3.20;;;7.30;99.90;;;;;;5012830;28;20754;-73
2023/11/22 03:54:54;;;;;;;5.15;2.72;;;7.20;99.90;;;;;;5031265;28;20292;-73
2023/11/22 03:57:21;;;;;;;9.27;3.45;;;7.20;99.90;;;;;;5032464;28;20084;-74
2023/11/22 03:59:48;;;;;;;13.93;2.70;;;7.10;99.90;;;;;;5014617;28;20492;-72
2023/11/22 04:02:15;;;;;;;7.28;3.03;;;7.10;99.90;;;;;;5031791;28;20107;-73
2023/11/22 04:04:42;;;;;;;10.52;2.90;;;7.10;99.90;;;;;;5027389;28;20255;-72
2023/11/22 04:07:08;;;;;;;10.55;2.65;;;7.00;99.90;;;;;;5031307;28;20041;-73
2023/11/22 04:09:35;;;;;;;7.80;3.20;;;7.00;99.90;;;;;;5032955;28;20049;-71
2023/11/22 04:12:03;;;;;;;10.05;2.72;;;7.00;99.90;;;;;;5013910;28;20496;-73
2023/11/22 04:14:31;;;;;;;9.68;2.45;;;7.10;99.90;;;;;;5030075;28;20058;-73
2023/11/22 04:16:58;;;;;;;11.77;2.78;;;7.00;99.90;;;;;;5035654;28;20054;-73
2023/11/22 04:19:25;;;;;;;13.20;3.20;;;7.00;99.90;;;;;;5032812;28;20045;-73
2023/11/22 04:21:53;;;;;;;5.63;2.67;;;7.00;99.90;;;;;;5031836;28;20049;-73
2023/11/22 04:24:20;;;;;;;8.25;2.83;;;7.00;99.90;;;;;;5031644;28;20045;-73
2023/11/22 04:26:47;;;;;;;9.23;2.35;;;7.00;99.90;;;;;;5031533;28;20467;-73
2023/11/22 04:29:16;;;;;;;10.27;2.47;;;6.90;99.90;;;;;;5014997;28;20124;-73
2023/11/22 04:31:43;;;;;;;9.23;2.92;;;6.90;99.90;;;;;;5030924;28;20069;-72
2023/11/22 04:34:10;;;;;;;10.15;2.22;;;6.90;99.90;;;;;;5031729;28;20096;-72
2023/11/22 04:36:38;;;;;;;11.35;4.13;;;6.90;99.90;;;;;;5031064;28;20053;-73
2023/11/22 04:39:07;;;;;;;6.93;3.40;;;7.00;99.90;;;;;;5032336;28;20046;-72
2023/11/22 04:41:34;;;;;;;7.88;3.30;;;6.90;99.90;;;;;;5029777;28;20572;-73
2023/11/22 04:44:01;;;;;;;15.30;2.92;;;6.80;99.90;;;;;;5014938;28;20065;-73
2023/11/22 04:46:28;;;;;;;7.47;2.35;;;6.80;99.90;;;;;;5032542;28;20104;-72
2023/11/22 04:48:55;;;;;;;14.30;2.75;;;6.70;99.90;;;;;;5035748;28;20041;-74
2023/11/22 04:51:23;;;;;;;8.27;2.75;;;6.70;99.90;;;;;;5014716;28;20050;-72
2023/11/22 04:53:51;;;;;;;7.63;2.30;;;6.70;99.90;;;;;;5030661;28;20053;-73
2023/11/22 04:56:18;;;;;;;8.48;3.97;;;6.80;99.90;;;;;;5031386;28;20056;-73
2023/11/22 04:58:44;;;;;;;5.05;2.63;;;6.70;99.90;;;;;;5039415;28;20063;-73
2023/11/22 05:01:11;;;;;;;9.23;2.42;;;6.70;99.90;;;;;;5014800;28;20311;-73
2023/11/22 05:03:38;;;;;;;11.23;2.55;;;6.70;99.90;;;;;;5032125;28;20321;-72
2023/11/22 05:06:06;;;;;;;11.70;2.80;;;6.60;99.90;;;;;;5031720;28;20080;-72
2023/11/22 05:08:34;;;;;;;5.07;2.67;;;6.60;99.90;;;;;;5014981;28;20046;-72
2023/11/22 05:11:02;;;;;;;10.32;2.70;;;6.60;99.90;;;;;;5031201;28;20217;-72
2023/11/22 05:13:29;;;;;;;12.32;2.83;;;6.60;99.90;;;;;;5027988;28;20120;-72
2023/11/22 05:15:56;;;;;;;9.38;2.72;;;6.60;99.90;;;;;;5024666;28;20046;-73
2023/11/22 05:18:23;;;;;;;9.30;2.60;;;6.60;99.90;;;;;;5036381;28;20049;-73
2023/11/22 05:20:50;;;;;;;6.57;2.55;;;6.50;99.90;;;;;;5028560;28;20045;-72
2023/11/22 05:23:18;;;;;;;7.75;2.67;;;6.60;99.90;;;;;;5029531;28;20049;-73
2023/11/22 05:25:44;;;;;;;7.65;2.65;;;6.60;99.90;;;;;;5031655;28;20092;-72
2023/11/22 05:28:12;;;;;;;9.70;3.13;;;6.60;99.90;;;;;;5031714;28;20050;-73
2023/11/22 05:30:39;;;;;;;14.07;3.72;;;6.60;99.90;;;;;;5014643;28;20072;-73
2023/11/22 05:33:06;;;;;;;15.73;3.20;;;6.60;99.90;;;;;;5021155;28;20053;-72
2023/11/22 05:35:33;;;;;;;14.32;3.55;;;6.60;99.90;;;;;;5025689;28;20100;-72
2023/11/22 05:38:00;;;;;;;10.32;2.72;;;6.60;99.90;;;;;;5033940;28;20041;-72
2023/11/22 05:40:27;;;;;;;9.65;3.10;;;6.60;99.90;;;;;;5031603;28;20080;-73
2023/11/22 05:42:54;;;;;;;13.63;3.55;;;6.60;99.90;;;;;;5035993;28;20056;-73
2023/11/22 05:45:20;;;;;;;8.98;3.30;;;6.60;99.90;;;;;;5029682;28;20158;-72
2023/11/22 05:47:48;;;;;;;11.85;4.10;;;6.50;99.90;;;;;;5034428;28;20465;-74
2023/11/22 05:50:15;;;;;;;11.52;3.15;;;6.50;99.90;;;;;;5035691;28;20042;-72
2023/11/22 05:52:42;;;;;;;10.55;3.08;;;6.60;99.90;;;;;;5016123;28;20057;-73
2023/11/22 05:55:09;;;;;;;10.63;3.92;;;6.50;99.90;;;;;;5013750;28;20057;-71
2023/11/22 05:57:36;;;;;;;11.98;4.10;;;6.50;99.90;;;;;;5036973;28;20046;-72
2023/11/22 06:00:04;;;;;;;8.15;3.58;;;6.50;99.90;;;;;;5030500;28;20046;-72
2023/11/22 06:02:31;;;;;;;8.43;3.28;;;6.50;99.90;;;;;;5018229;28;20038;-71
2023/11/22 06:04:58;;;;;;;9.43;3.72;;;6.40;99.90;;;;;;5035115;28;20087;-72
2023/11/22 06:07:25;;;;;;;9.13;3.90;;;6.40;99.90;;;;;;5014025;28;20073;-72
2023/11/22 06:09:52;;;;;;;10.10;3.63;;;6.40;99.90;;;;;;5033960;28;20570;-71
2023/11/22 06:12:20;;;;;;;11.88;3.35;;;6.30;99.90;;;;;;5034373;28;20371;-72
2023/11/22 06:14:47;;;;;;;18.52;3.85;;;6.30;99.90;;;;;;5017083;28;20049;-72
2023/11/22 06:17:14;;;;;;;15.73;4.85;;;6.40;99.90;;;;;;5033997;28;20309;-72
2023/11/22 06:19:41;;;;;;;13.60;4.50;;;6.20;99.90;;;;;;5034894;28;20416;-72
2023/11/22 06:22:08;;;;;;;19.75;4.53;;;6.30;99.90;;;;;;5016391;28;20589;-71
2023/11/22 06:24:35;;;;;;;11.90;3.78;;;6.30;99.90;;;;;;5039122;28;20076;-72
2023/11/22 06:27:03;;;;;;;12.75;3.83;;;6.30;99.90;;;;;;5019469;28;20054;-72
2023/11/22 06:29:30;;;;;;;17.23;3.67;;;6.20;99.90;;;;;;5028885;28;20046;-73
2023/11/22 06:31:57;;;;;;;12.20;3.72;;;6.20;99.90;;;;;;5030611;28;20053;-72
2023/11/22 06:34:24;;;;;;;11.68;4.15;;;6.20;99.90;;;;;;5032135;28;20076;-71
2023/11/22 06:36:50;;;;;;;8.77;3.60;;;6.20;99.90;;;;;;5035097;28;20096;-70
2023/11/22 06:39:17;;;;;;;13.35;4.13;;;6.20;99.90;;;;;;5015031;28;20788;-71
2023/11/22 06:41:44;;;;;;;8.38;3.83;;;6.20;99.90;;;;;;5031494;28;20045;-71
2023/11/22 06:44:11;;;;;;;12.32;3.58;;;6.20;99.90;;;;;;5032330;28;20099;-71
2023/11/22 06:46:38;;;;;;;17.25;3.60;;;6.20;99.90;;;;;;5021173;28;20485;-71
2023/11/22 06:49:05;;;;;;;12.57;4.30;;;6.10;99.90;;;;;;5033016;28;20049;-71
2023/11/22 06:51:32;;;;;;;14.98;5.50;;;6.20;99.90;;;;;;5033408;28;20053;-71
2023/11/22 06:53:59;;;;;;;11.57;4.18;;;6.10;99.90;;;;;;5032442;28;20045;-69
2023/11/22 06:56:28;;;;;;;10.68;3.80;;;6.20;99.90;;;;;;5030303;28;20136;-72
2023/11/22 06:58:57;;;;;;;10.60;4.00;;;6.20;99.90;;;;;;5012697;28;20038;-74
2023/11/22 07:01:27;;;;;;;11.80;4.15;;;6.20;99.90;;;;;;5033626;28;20050;-74
2023/11/22 07:03:54;;;;;;;13.50;4.03;;;6.30;99.90;;;;;;5032029;28;20526;-73
2023/11/22 07:06:22;;;;;;;17.63;4.03;;;6.20;99.90;;;;;;5026035;28;20054;-72
2023/11/22 07:08:49;;;;;;;9.25;4.82;;;6.20;99.90;;;;;;5014451;28;20041;-72
2023/11/22 07:11:23;;;;;;;15.07;5.05;;;6.20;99.90;;;;;;5021367;28;20075;-72
2023/11/22 07:13:51;;;;;;;13.82;4.80;;;6.20;99.90;;;;;;5016237;28;20550;-73
2023/11/22 07:16:18;;;;;;;11.90;4.25;;;6.20;99.90;;;;;;5028406;28;20094;-71
2023/11/22 07:18:45;;;;;;;11.40;4.68;;;6.10;99.90;;;;;;5014451;28;20051;-71
2023/11/22 07:21:12;;;;;;;13.85;4.07;;;6.10;99.90;;;;;;5032284;28;20402;-72
2023/11/22 07:23:39;;;;;;;12.93;3.83;;;6.20;99.90;;;;;;5032009;28;20046;-72
2023/11/22 07:26:06;;;;;;;10.73;4.15;;;6.20;99.90;;;;;;5020511;28;20049;-73
2023/11/22 07:28:35;;;;;;;8.38;3.75;;;6.20;99.90;;;;;;5025242;28;20553;-71
2023/11/22 07:31:05;;;;;;;17.63;4.32;;;6.20;99.90;;;;;;5023619;28;20049;-73
2023/11/22 07:33:33;;;;;;;8.82;3.42;;;6.20;99.90;;;;;;5025130;28;20496;-70
2023/11/22 07:36:00;;;;;;;13.32;4.53;;;6.20;99.90;;;;;;5033090;28;20660;-73
2023/11/22 07:38:27;;;;;;;10.77;4.07;;;6.30;99.90;;;;;;5026713;28;20057;-73
2023/11/22 07:40:54;;;;;;;10.20;4.05;;;6.30;99.90;;;;;;5026884;28;20045;-70
2023/11/22 07:43:21;;;;;;;9.38;3.88;;;6.40;99.90;;;;;;5012250;28;20049;-70
2023/11/22 07:45:48;;;;;;;15.48;4.38;;;6.40;99.90;;;;;;5025385;28;20038;-70
2023/11/22 07:48:15;;;;;;;11.93;4.35;;;6.40;99.90;;;;;;5026439;28;20060;-69
2023/11/22 07:50:43;;;;;;;7.95;3.60;;;6.40;99.90;;;;;;5022443;28;20375;-70
2023/11/22 07:53:14;;;;;;;6.97;3.65;;;6.50;99.90;;;;;;5026033;28;20054;-73
2023/11/22 07:55:41;;;;;;;10.40;3.97;;;6.50;99.90;;;;;;5033858;28;20057;-71
2023/11/22 07:58:08;;;;;;;8.50;4.03;;;6.50;99.90;;;;;;5029879;28;20048;-71
2023/11/22 08:00:36;;;;;;;9.77;4.07;;;6.50;99.90;;;;;;5030641;28;20096;-71
2023/11/22 08:03:03;;;;;;;10.55;4.22;;;6.60;99.90;;;;;;5020963;28;20041;-72
2023/11/22 08:05:36;;;;;;;17.77;4.97;;;6.60;99.90;;;;;;5007352;28;20045;-71
2023/11/22 08:08:06;;;;;;;10.25;4.95;;;6.70;99.90;;;;;;5021775;28;20061;-70
2023/11/22 08:10:34;;;;;;;7.53;3.80;;;6.70;99.90;;;;;;5030226;28;20050;-72
2023/11/22 08:13:03;;;;;;;11.02;4.90;;;6.80;99.90;;;;;;5030493;28;20058;-74
2023/11/22 08:15:31;;;;;;;12.40;4.70;;;6.80;99.90;;;;;;5012669;28;20041;-70
2023/11/22 08:18:00;;;;;;;9.10;4.70;;;6.90;99.90;;;;;;5026094;28;20153;-70
2023/11/22 08:20:27;;;;;;;13.63;4.97;;;6.90;99.90;;;;;;5029274;28;20111;-71
2023/11/22 08:22:54;;;;;;;19.77;5.03;;;6.90;99.90;;;;;;5031857;28;20556;-71
2023/11/22 08:25:21;;;;;;;12.82;4.65;;;6.80;99.90;;;;;;5034919;28;20045;-71
2023/11/22 08:27:48;;;;;;;9.98;4.10;;;6.90;99.90;;;;;;5018151;28;20112;-72
2023/11/22 08:30:15;;;;;;;13.50;5.05;;;6.90;99.90;;;;;;5015219;28;20045;-71
2023/11/22 08:32:43;;;;;;;12.35;4.63;;;6.90;99.90;;;;;;5026936;28;20086;-71
2023/11/22 08:35:11;;;;;;;10.30;3.72;;;6.90;99.90;;;;;;5029192;28;20076;-71
2023/11/22 08:37:39;;;;;;;12.75;4.57;;;7.40;99.90;;;;;;5031285;28;20060;-72
2023/11/22 08:40:07;;;;;;;13.93;4.38;;;7.00;99.90;;;;;;5030918;28;20045;-72
2023/11/22 08:42:35;;;;;;;12.02;4.60;;;7.00;99.90;;;;;;5029757;28;20057;-71
2023/11/22 08:45:03;;;;;;;16.48;4.90;;;7.00;99.90;;;;;;5014229;28;20536;-72
2023/11/22 08:47:31;;;;;;;15.80;6.28;;;7.00;99.90;;;;;;5030950;28;20064;-72
2023/11/22 08:49:58;;;;;;;12.02;5.35;;;7.00;99.90;;;;;;5032790;28;20076;-72
2023/11/22 08:52:25;;;;;;;13.32;6.28;;;7.00;99.90;;;;;;5031229;28;20602;-72
2023/11/22 08:54:52;;;;;;;18.00;5.55;;;7.00;99.90;;;;;;5033080;28;20053;-72
2023/11/22 08:57:20;;;;;;;14.48;5.57;;;7.10;99.90;;;;;;5035214;28;20079;-71
2023/11/22 08:59:47;;;;;;;12.85;5.47;;;7.10;99.90;;;;;;5033018;28;20464;-71
2023/11/22 09:02:15;;;;;;;12.45;5.15;;;7.10;99.90;;;;;;5011437;28;20053;-71
2023/11/22 09:04:42;;;;;;;18.33;6.15;;;7.20;99.90;;;;;;5010576;28;20469;-72
2023/11/22 09:07:10;;;;;;;14.90;4.80;;;7.20;99.90;;;;;;5027778;28;20546;-71
2023/11/22 09:09:37;;;;;;;14.73;5.63;;;7.30;99.90;;;;;;5028078;28;20045;-71
2023/11/22 09:12:12;;;;;;;19.70;7.22;;;7.40;99.90;;;;;;5029098;28;20056;-71
2023/11/22 09:14:41;;;;;;;16.35;6.55;;;7.50;99.90;;;;;;5032975;28;20051;-71
2023/11/22 09:17:09;;;;;;;22.58;7.95;;;7.60;99.90;;;;;;5028644;28;20050;-72
2023/11/22 09:19:37;;;;;;;16.02;5.20;;;7.80;99.90;;;;;;5031672;28;20049;-71
2023/11/22 09:22:06;;;;;;;11.18;4.53;;;7.90;99.90;;;;;;5031313;28;20046;-71
2023/11/22 09:24:33;;;;;;;17.88;4.97;;;8.00;99.90;;;;;;5029293;28;20098;-70
2023/11/22 09:27:05;;;;;;;13.32;3.58;;;8.10;99.90;;;;;;5012754;28;20132;-73
2023/11/22 09:29:32;;;;;;;14.88;6.03;;;8.20;99.90;;;;;;5014041;28;20076;-72
2023/11/22 09:32:00;;;;;;;12.13;2.83;;;8.30;99.90;;;;;;5030419;28;20038;-70
2023/11/22 09:34:29;;;;;;;11.50;3.58;;;8.40;99.90;;;;;;5027398;28;20050;-71
2023/11/22 09:36:56;;;;;;;20.45;3.35;;;8.40;99.90;;;;;;5030316;28;20117;-71
2023/11/22 09:39:24;;;;;;;8.05;2.63;;;8.50;99.90;;;;;;5007006;28;20148;-72
2023/11/22 09:41:51;;;;;;;8.27;2.75;;;8.50;99.90;;;;;;5023791;28;20500;-71
2023/11/22 09:44:18;;;;;;;6.72;2.30;;;8.50;99.90;;;;;;5029344;28;20420;-71
2023/11/22 09:46:46;;;;;;;8.23;2.95;;;8.50;99.90;;;;;;5012054;28;20050;-71
2023/11/22 09:49:15;;;;;;;8.85;2.70;;;8.50;99.90;;;;;;5013064;28;20089;-71
2023/11/22 09:51:41;;;;;;;4.90;2.85;;;8.60;99.90;;;;;;5012513;28;20088;-71
2023/11/22 09:54:11;;;;;;;10.75;2.55;;;8.60;99.90;;;;;;5012390;28;20077;-71
2023/11/22 09:56:38;;;;;;;7.45;2.53;;;8.70;99.90;;;;;;5030724;28;20053;-71
2023/11/22 09:59:07;;;;;;;12.45;2.30;;;8.70;99.90;;;;;;5030094;28;20041;-70
2023/11/22 10:01:36;;;;;;;9.30;2.22;;;8.70;99.90;;;;;;5006880;28;20053;-70
2023/11/22 10:04:06;;;;;;;10.68;1.85;;;8.70;99.90;;;;;;5012538;28;20049;-71
2023/11/22 10:06:35;;;;;;;4.53;2.08;;;8.80;99.90;;;;;;5009616;28;20072;-71
2023/11/22 10:09:07;;;;;;;12.25;2.05;;;8.90;99.90;;;;;;5029593;28;20041;-72
2023/11/22 10:11:43;;;;;;;4.75;1.67;;;8.90;99.90;;;;;;5029150;28;20045;-71
2023/11/22 10:14:10;;;;;;;6.88;1.48;;;9.00;99.90;;;;;;5029296;28;20220;-73
2023/11/22 10:16:37;;;;;;;9.43;2.42;;;8.90;99.90;;;;;;5029524;28;20638;-72
2023/11/22 10:19:07;;;;;;;8.85;1.80;;;8.90;99.90;;;;;;5029851;28;20042;-72
2023/11/22 10:21:34;;;;;;;9.82;1.83;;;9.00;99.90;;;;;;5026687;28;20041;-72
2023/11/22 10:24:02;;;;;;;11.07;2.53;;;9.00;99.90;;;;;;5011099;28;20049;-71
2023/11/22 10:26:30;;;;;;;6.70;1.17;;;9.00;99.90;;;;;;5031300;28;20382;-72
2023/11/22 10:28:57;;;;;;;6.88;2.25;;;9.00;99.90;;;;;;5029112;28;20052;-71
2023/11/22 10:31:25;;;;;;;5.72;1.42;;;9.10;99.90;;;;;;5028681;28;20049;-73
2023/11/22 10:33:53;;;;;;;7.70;1.83;;;9.10;99.90;;;;;;5009812;28;20711;-72
2023/11/22 10:36:21;;;;;;;6.78;1.75;;;9.20;99.90;;;;;;5029488;28;20049;-72
2023/11/22 10:38:48;;;;;;;7.82;1.45;;;9.20;99.90;;;;;;5011985;28;20061;-72
2023/11/22 10:41:15;;;;;;;9.50;1.60;;;9.20;99.90;;;;;;5009728;28;20145;-72
2023/11/22 10:43:44;;;;;;;8.02;1.65;;;9.20;99.90;;;;;;5026141;28;20063;-72
2023/11/22 10:46:12;;;;;;;6.95;1.75;;;9.20;99.90;;;;;;5011507;28;20049;-72
2023/11/22 10:48:39;;;;;;;3.92;1.60;;;9.20;99.90;;;;;;5027766;28;20053;-71
2023/11/22 10:51:06;;;;;;;8.02;1.38;;;9.20;99.90;;;;;;5029144;28;20476;-72
2023/11/22 10:53:35;;;;;;;2.50;1.40;;;9.20;99.90;;;;;;5008889;28;20049;-72
2023/11/22 10:56:17;;;;;;;13.25;1.45;;;9.20;99.90;;;;;;5024551;28;20140;-72
2023/11/22 10:58:57;;;;;;;7.07;1.67;;;9.30;99.90;;;;;;5000959;28;20049;-71
2023/11/22 11:01:29;;;;;;;6.72;1.50;;;9.30;99.90;;;;;;5011391;28;20064;-73
2023/11/22 11:03:57;;;;;;;10.60;1.83;;;9.30;99.90;;;;;;5002452;28;20072;-72
2023/11/22 11:06:28;;;;;;;8.07;1.52;;;9.20;99.90;;;;;;5030426;28;20125;-72
2023/11/22 11:08:55;;;;;;;4.68;1.27;;;9.30;99.90;;;;;;5015174;28;20132;-73
2023/11/22 11:11:22;;;;;;;5.38;1.83;;;9.30;99.90;;;;;;5024049;28;20050;-73
2023/11/22 11:13:49;;;;;;;2.92;1.30;;;9.30;99.90;;;;;;5014673;28;20488;-73
2023/11/22 11:16:16;;;;;;;10.45;2.08;;;9.30;99.90;;;;;;5010015;28;20053;-71
2023/11/22 11:18:43;;;;;;;5.13;1.50;;;9.30;99.90;;;;;;5032456;28;20084;-72
2023/11/22 11:21:13;;;;;;;9.75;1.77;;;9.50;99.90;;;;;;5001605;28;20037;-73
2023/11/22 11:23:44;;;;;;;9.50;1.98;;;9.40;99.90;;;;;;5026542;28;20393;-72
2023/11/22 11:26:16;;;;;;;2.83;1.13;;;9.50;99.90;;;;;;5009851;28;20045;-72
2023/11/22 11:28:48;;;;;;;6.85;1.63;;;9.60;99.90;;;;;;5023580;28;20136;-72
2023/11/22 11:31:15;;;;;;;10.38;2.08;;;9.70;99.90;;;;;;5005686;28;20041;-72
2023/11/22 11:34:00;;;;;;;10.07;2.45;;;9.70;99.90;;;;;;5021153;28;20049;-71
2023/11/22 11:36:29;;;;;;;6.93;1.85;;;9.80;99.90;;;;;;5016899;28;20128;-73
2023/11/22 11:38:56;;;;;;;4.65;1.77;;;9.90;99.90;;;;;;5027555;28;20057;-71
2023/11/22 11:41:27;;;;;;;3.08;1.50;;;9.90;99.90;;;;;;5023774;28;20492;-72
2023/11/22 11:43:55;;;;;;;9.88;2.33;;;10.00;99.90;;;;;;5026834;28;20480;-72
2023/11/22 11:46:26;;;;;;;5.05;1.48;;;9.90;99.90;;;;;;5024502;28;20567;-72
2023/11/22 11:48:53;;;;;;;4.50;1.48;;;9.90;99.90;;;;;;5027363;28;20053;-72
2023/11/22 11:51:22;;;;;;;5.07;1.25;;;10.10;99.90;;;;;;5026762;28;20080;-71
2023/11/22 11:53:49;;;;;;;4.55;1.55;;;10.00;99.90;;;;;;5026164;28;20041;-72
2023/11/22 11:56:17;;;;;;;5.32;1.60;;;10.00;99.90;;;;;;5008508;28;20045;-72
2023/11/22 11:58:46;;;;;;;4.60;1.27;;;10.00;99.90;;;;;;5026559;28;20217;-73
2023/11/22 12:01:13;;;;;;;3.75;1.15;;;10.00;99.90;;;;;;5025739;28;20681;-72
2023/11/22 12:03:40;;;;;;;5.25;1.17;;;10.00;99.90;;;;;;5007172;28;20530;-72
2023/11/22 12:06:07;;;;;;;6.30;1.40;;;9.90;99.90;;;;;;5010834;28;20450;-72
2023/11/22 12:08:37;;;;;;;5.15;1.80;;;9.90;99.90;;;;;;5028225;28;20128;-73
2023/11/22 12:11:04;;;;;;;30.42;3.88;;;10.00;99.90;;;;;;5026405;28;20045;-73
2023/11/22 12:13:31;;;;;;;9.75;1.77;;;10.00;99.90;;;;;;5029501;28;20053;-71
2023/11/22 12:15:58;;;;;;;5.15;1.55;;;10.00;99.90;;;;;;5021428;28;20093;-73
2023/11/22 12:18:25;;;;;;;7.10;1.45;;;10.00;99.90;;;;;;5020661;28;20054;-74
2023/11/22 12:20:59;;;;;;;6.53;1.38;;;10.00;99.90;;;;;;5003100;28;20073;-73
2023/11/22 12:23:29;;;;;;;8.82;1.60;;;10.00;99.90;;;;;;5020297;28;20698;-73
2023/11/22 12:25:57;;;;;;;7.13;1.65;;;10.00;99.90;;;;;;5031019;28;20068;-73
2023/11/22 12:28:26;;;;;;;4.63;1.30;;;10.00;99.90;;;;;;5006738;28;20143;-73
2023/11/22 12:30:53;;;;;;;5.50;1.45;;;10.10;99.90;;;;;;5009178;28;20096;-74
2023/11/22 12:33:20;;;;;;;4.85;1.45;;;10.10;99.90;;;;;;5007454;28;20105;-73
2023/11/22 12:35:48;;;;;;;9.50;1.83;;;10.20;99.90;;;;;;5006586;28;20484;-71
2023/11/22 12:38:16;;;;;;;12.20;2.58;;;10.20;99.90;;;;;;5001819;28;20045;-71
2023/11/22 12:40:45;;;;;;;6.32;1.58;;;10.20;99.90;;;;;;5025593;28;20072;-71
2023/11/22 12:43:13;;;;;;;5.72;1.63;;;10.20;99.90;;;;;;5021632;28;20045;-72
2023/11/22 12:45:41;;;;;;;4.07;1.33;;;10.20;99.90;;;;;;5007878;28;20559;-72
2023/11/22 12:48:24;;;;;;;5.50;2.00;;;10.30;99.90;;;;;;5004680;28;20053;-72
2023/11/22 12:50:54;;;;;;;6.22;1.80;;;10.20;99.90;;;;;;5027621;28;20417;-72
2023/11/22 12:53:22;;;;;;;9.05;2.88;;;10.30;99.90;;;;;;5010708;28;20053;-73